Disclaimer

Please do not use the information listed here in-flight or in-navigation, as they are not provided to us by the airports but are provided by volunteers, so they might be outdated.

Search


Regions


Airport information page

Radio informations:
Tower (TWR) - 120.5 MHz
Automatic Terminal Information Service (ATIS) - 118.175 MHz

Airport informations:
Latitude: 59° 20' 42.96" N
Longitude: 005° 12' 30.11" E
Elevation: 86 feet - 26 meters
Operating hours: Remarks
Operating agency: Civil government, landing fees and diplomatic clearance may be required
Timezone: UTC+1(+2DT) - Last Sunday in March to last Sunday in October
Fuel: Jet A1, without icing nhibitor.

100/130 MIL Spec, low lead, aviation gasoline (BLUE)

Runway information:
14/32 - 6957 x 148 feet< - >2120 x 45 meters

Recent METARs:
ENHD 181850Z 06006KT CAVOK 02/01 Q1039
ENHD 181920Z 08005KT CAVOK 03/02 Q1039
ENHD 181950Z 05004KT CAVOK 03/02 Q1039

Airport on the map: